Weather at Pobrežje Airfield

Public forecast

Using degrees Celsius for public forecast. Weather courtesy of forecast.io.

Closest aviation weather report (METAR) to Pobrežje Airfield

Closest report is Ljubljana Jože Pučnik Airport, 19.2 nm (35.5 km) WSW.

2024/05/30 02:00 (retrieved 33 minutes ago)

LJLJ 300200Z 30002KT 9999 MIFG NSC 10/09 Q1010 NOSIG

Closest aviation forecast (TAF) to Pobrežje Airfield

Forecast is more than 6 hours old.

Closest forecast is Bolzano Airport, 148.5 nm (275.0 km) W.

2024/05/29 18:35 (retrieved 8 hours ago)

TAF LIPB 292124Z 2918/3018 CNL